Hydro-Met Data Report Part 5
Issued by NWS West Gulf RFC

Home |  Current Version |  Previous Version |  Text Only |  Print | Product List |  Glossary On
Versions: 1 2 3 4 5 6 7 8 9 10 11 12 13 14 15 16 17 18 19 20 21 22 23 24 25 26 27
363
SRUS54 KFWR 041739
RR5FWR
:Hourly Reservoir Discharges
:Data - USACE
.E ACTT2 20260503 Z DH1800 /DUE /QTIRZZZ /DIH+01 /0.02 /0.02 /0.02 /0.02 /0.02 /0.02 /0.02 /0.02 /0.02 /0.02 /0.02 /0.02 /0.02 /0.02 /0.02 /0.02 /0.02 /0.02 /0.02 /0.02 /0.02 /0.02 /0.02
.E ALAT2 20260503 Z DH1800 /DUE /QTIRZZZ /DIH+01 /0.0052 /0.0052 /0.0052 /0.0052 /0.0052 /0.0052 /0.0052 /0.0052 /0.0052 /0.0052 /0.0052 /0.0052 /0.0052 /0.0052 /0.0052 /0.0052 /0.0052 /0.0052 /0.0052 /0.0052 /0.0052 /0.0052
.E BLNT2 20260503 Z DH1800 /DUE /QTIRZZZ /DIH+01 /0.0605 /0.0605 /0.0605 /0.0605 /0.0605 /0.0605 /0.0605 /0.0605 /0.0605 /0.0605 /0.0605 /0.0605 /0.0605 /0.0605 /0.0605 /0.0605 /0.0605 /0.0605 /0.0605 /0.0605 /0.0605 /0.0605 /0.0605
.E GGLT2 20260503 Z DH1800 /DUE /QTIRZZZ /DIH+01 /0.0 /0.0 /0.0 /0.0 /0.0 /0.0 /0.0 /0.0 /0.0 /0.0 /0.0 /0.0 /0.0 /0.0 /0.0 /0.0 /0.0 /0.0 /0.0 /0.0 /0.0 /0.0 /0.0
.E GNGT2 20260503 Z DH1800 /DUE /QTIRZZZ /DIH+01 /0.5296 /0.5296 /0.5296 /0.5296 /0.5295 /0.5295 /0.5294 /0.5294 /0.5294 /0.5293 /0.5293 /0.5293 /0.5292 /0.5292 /0.5292 /0.5291 /0.5291 /0.5291 /0.529 /0.529 /0.5289 /0.5289 /0.5289
.E PCTT2 20260503 Z DH1800 /DUE /QTIRZZZ /DIH+01 /0.003 /0.003 /0.003 /0.003 /0.003 /0.003 /0.003 /0.003 /0.003 /0.003 /0.003 /0.003 /0.003 /0.003 /0.003 /0.003 /0.003 /0.003 /0.003 /0.003 /0.003 /0.003
.E SOMT2 20260503 Z DH1800 /DUE /QTIRZZZ /DIH+01 /0.001 /0.001 /0.001 /0.001 /0.001 /0.001 /0.001 /0.001 /0.001 /0.001 /0.001 /0.001 /0.001 /0.001 /0.001 /0.001 /0.001 /0.001 /0.001 /0.001 /0.001 /0.001 /0.001
.E STIT2 20260503 Z DH1800 /DUE /QTIRZZZ /DIH+01 /0.001 /0.001 /0.001 /0.001 /0.001 /0.001 /0.001 /0.001 /0.001 /0.001 /0.001 /0.001 /0.001 /0.001 /0.001 /0.001 /0.001 /0.001 /0.001 /0.001 /0.001 /0.001 /0.001
.E WTYT2 20260503 Z DH1800 /DUE /QTIRZZZ /DIH+01 /0.05 /0.05 /0.05 /0.05 /0.05 /0.05 /0.05 /0.05 /0.05 /0.05 /0.05 /0.05 /0.05 /0.05 /0.05 /0.05 /0.05 /0.05 /0.05 /0.05 /0.05 /0.05
.E HORT2 20260503 Z DH1800 /DUE /QTIRZZZ /DIH+01 /0.0 /0.0 /0.0 /0.0 /0.0 /0.0 /0.0 /0.0 /0.0 /0.0 /0.0 /0.0 /0.0 /0.0 /0.0 /0.0 /0.0 /0.0 /0.0 /0.0 /0.0 /0.0
.E SAGT2 20260503 Z DH1800 /DUE /QTIRZZZ /DIH+01 /0.001 /0.001 /0.001 /0.001 /0.001 /0.001 /0.001 /0.001 /0.001 /0.001 /0.001 /0.001 /0.001 /0.001 /0.001 /0.001 /0.001 /0.001 /0.001 /0.001 /0.001 /0.001 /0.001
.E TBRT2 20260503 Z DH1800 /DUE /QTIRZZZ /DIH+01 /0.0 /0.0 /0.0 /0.0 /0.0 /0.0 /0.0 /0.0 /0.0 /0.0 /0.0 /0.0 /0.0 /0.0 /0.0 /0.0 /0.0 /0.0 /0.0 /0.0 /0.0 /0.0 /0.0
.E SMCT2 20260503 Z DH1800 /DUE /QTIRZZZ /DIH+01 /0.0917 /0.0917 /0.0917 /0.0917 /0.0917 /0.0917 /0.0917 /0.0917 /0.0917 /0.0917 /0.0917 /0.0917 /0.0917 /0.0917 /0.0917 /0.0917 /0.0917 /0.0917 /0.0917 /0.0917 /0.0917 /0.0917 /0.0917
.E JSPT2 20260503 Z DH1800 /DUE /QTIRZZZ /DIH+01 /0.0 /0.0 /0.0 /0.0 /0.0 /0.0 /0.0 /0.0 /0.0 /0.0 /0.0 /0.0 /0.0 /0.0 /0.0 /0.0 /0.0 /0.0 /0.0 /0.0 /0.0 /0.0 /0.0
.E TBLT2 20260503 Z DH1800 /DUE /QTIRZZZ /DIH+01 /2.8 /2.8 /2.8 /2.8 /2.8 /2.8 /2.8 /2.8 /2.8 /2.8 /2.8 /2.8 /2.8 /2.8 /2.8 /2.8 /2.8 /2.8 /2.8 /2.8 /2.8 /2.8 /2.8
.E BSLT2 20260503 Z DH1800 /DUE /QTIRZZZ /DIH+01 /0.005 /0.005 /0.005 /0.005 /0.005 /0.005 /0.005 /0.005 /0.005 /0.005 /0.005 /0.005 /0.005 /0.005 /0.005 /0.005 /0.005 /0.005 /0.005 /0.005 /0.005 /0.005 /0.005
.E CLDL1 20260503 Z DH1800 /DUE /QTIRZZZ /DIH+01 /1.5579 /1.5544 /1.551 /1.5476 /1.5442 /1.5408 /1.5373 /1.534 /1.5311 /1.5282 /1.5254 /1.5225 /1.5196 /1.5168 /1.5139 /1.511 /1.5082 /1.5053 /1.5024 /1.4996 /1.504 /1.536 /1.568
.E JFNT2 20260503 Z DH1800 /DUE /QTIRZZZ /DIH+01 /0.001 /0.001 /0.001 /0.001 /0.001 /0.001 /0.001 /0.001 /0.001 /0.001 /0.001 /0.001 /0.001 /0.001 /0.001 /0.001 /0.001 /0.001 /0.001 /0.001 /0.001 /0.001
.E SCLT2 20260503 Z DH1800 /DUE /QTIRZZZ /DIH+01 /0.0053 /0.0053 /0.0053 /0.0053 /0.0053 /0.0053 /0.0053 /0.0053 /0.0053 /0.0053 /0.0053 /0.0053 /0.0053 /0.0053 /0.0053 /0.0053 /0.0053 /0.0053 /0.0053 /0.0053 /0.0053 /0.0053 /0.0053
.E TXKT2 20260503 Z DH1800 /DUE /QTIRZZZ /DIH+01 /0.001 /0.001 /0.001 /0.001 /0.001 /0.001 /0.001 /0.001 /0.001 /0.001 /0.001 /0.001 /0.001 /0.001 /0.001 /0.001 /0.001 /0.001 /0.001 /0.001 /0.001 /0.001 /0.001
.E BDWT2 20260503 Z DH1800 /DUE /QTIRZZZ /DIH+01 /0.0903 /0.0903 /0.0903 /0.0903 /0.0903 /0.0903 /0.0903 /0.0903 /0.0903 /0.0903 /0.0903 /0.0903 /0.0903 /0.0903 /0.0903 /0.0903 /0.0903 /0.0903 /0.0903 /0.0903 /0.0903 /0.0903
.E BNBT2 20260503 Z DH1800 /DUE /QTIRZZZ /DIH+01 /0.003 /0.003 /0.003 /0.003 /0.003 /0.003 /0.003 /0.003 /0.003 /0.003 /0.003 /0.003 /0.003 /0.003 /0.003 /0.003 /0.003 /0.003 /0.003 /0.003 /0.003 /0.003 /0.003
.E DAWT2 20260503 Z DH1800 /DUE /QTIRZZZ /DIH+01 /0.0 /0.0 /0.0 /0.0 /0.0 /0.0 /0.0 /0.0 /0.0 /0.0 /0.0 /0.0 /0.0 /0.0 /0.0 /0.0 /0.0 /0.0 /0.0 /0.0 /0.0 /0.0 /0.0
.E GPVT2 20260503 Z DH1800 /DUE /QTIRZZZ /DIH+01 /0.4209 /0.4209 /0.4209 /0.4209 /0.4209 /0.4208 /0.4208 /0.4208 /0.4208 /0.4208 /0.4208 /0.4207 /0.4207 /0.4207 /0.4207 /0.4207 /0.4206 /0.4206 /0.4206 /0.4205 /0.4207 /0.4205
.E JPLT2 20260503 Z DH1800 /DUE /QTIRZZZ /DIH+01 /0.23 /0.23 /0.23 /0.23 /0.23 /0.23 /0.23 /0.23 /0.23 /0.2299 /0.2299 /0.2299 /0.2299 /0.2299 /0.2299 /0.2299 /0.2299 /0.2299 /0.2299 /0.2299 /0.2299 /0.2299 /0.2299
.E LEWT2 20260503 Z DH1800 /DUE /QTIRZZZ /DIH+01 /0.0586 /0.0586 /0.0586 /0.0586 /0.0586 /0.0586 /0.0586 /0.0586 /0.0586 /0.0586 /0.0586 /0.0586 /0.0586 /0.0586 /0.0586 /0.0586 /0.0586 /0.0586 /0.0586 /0.0586 /0.0586 /0.0586
.E LVNT2 20260503 Z DH1800 /DUE /QTIRZZZ /DIH+01 /0.001 /0.001 /0.001 /0.001 /0.001 /0.001 /0.001 /0.001 /0.001 /0.001 /0.001 /0.001 /0.001 /0.001 /0.001 /0.001 /0.001 /0.001 /0.001 /0.001 /0.001 /0.001 /0.001
.E RRLT2 20260503 Z DH1800 /DUE /QTIRZZZ /DIH+01 /0.0253 /0.0253 /0.0253 /0.0253 /0.0253 /0.0253 /0.0253 /0.0253 /0.0253 /0.0253 /0.0253 /0.0253 /0.0253 /0.0253 /0.0253 /0.0253 /0.0253 /0.0253 /0.0253 /0.0253 /0.0253 /0.0253

$$